createdAt,value
2022-12-24T00:01:06.826Z,20.23
2022-12-24T00:03:36.410Z,20.48
2022-12-24T00:06:22.129Z,19.10
2022-12-24T00:08:51.026Z,18.80
2022-12-24T00:11:19.197Z,18.85
2022-12-24T00:13:46.575Z,19.88
2022-12-24T00:16:13.989Z,18.08
2022-12-24T00:18:46.415Z,17.10
2022-12-24T00:21:15.074Z,18.45
2022-12-24T00:23:42.799Z,16.58
2022-12-24T00:26:10.060Z,21.80
2022-12-24T00:28:37.354Z,21.25
2022-12-24T00:31:12.730Z,16.65
2022-12-24T00:33:40.476Z,15.43
2022-12-24T00:36:08.567Z,17.02
2022-12-24T00:38:35.943Z,18.33
2022-12-24T00:41:05.076Z,13.90
2022-12-24T00:43:32.776Z,17.60
2022-12-24T00:46:00.577Z,15.73
2022-12-24T00:48:27.888Z,14.50
2022-12-24T00:50:55.361Z,15.70
2022-12-24T00:53:22.622Z,15.55
2022-12-24T00:55:49.929Z,16.63
2022-12-24T00:58:17.200Z,15.70
2022-12-24T01:00:44.466Z,14.02
2022-12-24T01:03:11.817Z,14.43
2022-12-24T01:05:39.124Z,13.07
2022-12-24T01:08:06.471Z,15.02
2022-12-24T01:10:33.770Z,13.27
2022-12-24T01:13:04.260Z,14.85
2022-12-24T01:15:31.913Z,14.73
2022-12-24T01:17:59.226Z,12.32
2022-12-24T01:20:31.524Z,13.93
2022-12-24T01:22:58.914Z,10.63
2022-12-24T01:25:26.211Z,12.90
2022-12-24T01:27:53.529Z,14.00
2022-12-24T01:30:20.900Z,17.25
2022-12-24T01:32:48.158Z,12.52
2022-12-24T01:35:15.695Z,13.13
2022-12-24T01:37:43.325Z,13.65
2022-12-24T01:40:34.482Z,12.52
2022-12-24T01:43:20.299Z,11.80
2022-12-24T01:45:54.726Z,14.30
2022-12-24T01:48:34.208Z,12.32
2022-12-24T01:51:23.006Z,11.68
2022-12-24T01:53:57.198Z,10.80
2022-12-24T01:56:26.009Z,10.50
2022-12-24T01:58:57.471Z,11.25
2022-12-24T02:01:25.030Z,9.23
2022-12-24T02:03:52.985Z,15.18
2022-12-24T02:06:22.346Z,11.85
2022-12-24T02:08:49.689Z,11.20
2022-12-24T02:11:20.352Z,11.77
2022-12-24T02:13:53.428Z,11.88
2022-12-24T02:16:58.312Z,12.93
2022-12-24T02:19:37.346Z,14.73
2022-12-24T02:22:13.857Z,10.93
2022-12-24T02:25:05.996Z,9.77
2022-12-24T02:27:52.142Z,14.40
2022-12-24T02:30:21.833Z,10.25
2022-12-24T02:33:10.874Z,12.15
2022-12-24T02:35:53.605Z,10.40
2022-12-24T02:38:29.077Z,10.13
2022-12-24T02:41:02.583Z,9.10
2022-12-24T02:43:35.853Z,9.48
2022-12-24T02:46:08.981Z,10.07
2022-12-24T02:48:38.621Z,11.20
2022-12-24T02:51:08.707Z,12.95
2022-12-24T02:53:37.494Z,11.32
2022-12-24T02:56:09.910Z,10.23
2022-12-24T02:58:40.182Z,11.82
2022-12-24T03:01:17.393Z,12.25
2022-12-24T03:03:59.987Z,9.63
2022-12-24T03:06:57.927Z,13.93
2022-12-24T03:09:55.867Z,13.18
2022-12-24T03:12:35.882Z,9.57
2022-12-24T03:15:05.668Z,8.43
2022-12-24T03:17:37.502Z,10.38
2022-12-24T03:20:08.535Z,10.80
2022-12-24T03:22:36.093Z,10.05
2022-12-24T03:25:04.537Z,15.98
2022-12-24T03:27:34.294Z,10.07
2022-12-24T03:30:04.516Z,11.75
2022-12-24T03:32:33.197Z,10.80
2022-12-24T03:35:00.840Z,13.10
2022-12-24T03:37:28.128Z,11.18
2022-12-24T03:39:55.432Z,8.82
2022-12-24T03:42:22.693Z,8.88
2022-12-24T03:44:50.032Z,9.43
2022-12-24T03:47:17.252Z,10.52
2022-12-24T03:49:44.527Z,9.23
2022-12-24T03:52:11.856Z,9.30
2022-12-24T03:54:39.168Z,10.73
2022-12-24T03:57:06.510Z,12.68
2022-12-24T03:59:33.805Z,9.00
2022-12-24T04:02:01.250Z,9.07
2022-12-24T04:04:28.651Z,10.82
2022-12-24T04:06:55.973Z,8.98
2022-12-24T04:09:23.246Z,10.52
2022-12-24T04:11:50.517Z,9.57
2022-12-24T04:14:17.833Z,8.18
2022-12-24T04:16:45.179Z,7.60
2022-12-24T04:19:12.502Z,11.43
2022-12-24T04:21:39.751Z,6.95
2022-12-24T04:24:07.190Z,9.55
2022-12-24T04:26:34.460Z,9.77
2022-12-24T04:29:01.679Z,9.55
2022-12-24T04:31:29.121Z,8.70
2022-12-24T04:33:56.429Z,8.90
2022-12-24T04:36:24.119Z,11.07
2022-12-24T04:38:51.508Z,8.90
2022-12-24T04:41:24.129Z,14.32
2022-12-24T04:43:53.975Z,10.85
2022-12-24T04:46:24.084Z,10.10
2022-12-24T04:48:53.296Z,9.70
2022-12-24T04:51:21.409Z,10.43
2022-12-24T04:53:49.511Z,10.45
2022-12-24T04:56:20.530Z,12.05
2022-12-24T04:58:48.202Z,7.72
2022-12-24T05:01:25.024Z,9.45
2022-12-24T05:03:53.521Z,9.55
2022-12-24T05:06:24.131Z,8.52
2022-12-24T05:08:53.982Z,11.48
2022-12-24T05:11:21.247Z,10.52
2022-12-24T05:13:48.551Z,11.23
2022-12-24T05:16:18.114Z,10.32
2022-12-24T05:18:45.930Z,8.73
2022-12-24T05:21:22.274Z,8.98
2022-12-24T05:24:08.487Z,11.20
2022-12-24T05:26:41.517Z,13.13
2022-12-24T05:29:12.240Z,11.02
2022-12-24T05:31:40.789Z,10.77
2022-12-24T05:34:09.680Z,11.05
2022-12-24T05:36:37.332Z,8.27
2022-12-24T05:39:09.817Z,12.48
2022-12-24T05:41:41.058Z,12.02
2022-12-24T05:44:08.365Z,10.68
2022-12-24T05:46:35.748Z,11.52
2022-12-24T05:49:03.051Z,9.35
2022-12-24T05:51:30.327Z,9.45
2022-12-24T05:53:57.576Z,12.10
2022-12-24T05:56:25.802Z,9.15
2022-12-24T05:58:54.708Z,9.35
2022-12-24T06:01:23.111Z,11.98
2022-12-24T06:03:51.709Z,10.63
2022-12-24T06:06:22.065Z,11.90
2022-12-24T06:08:50.465Z,13.00
2022-12-24T06:11:21.682Z,11.35
2022-12-24T06:13:49.496Z,10.48
2022-12-24T06:16:19.241Z,10.93
2022-12-24T06:18:46.980Z,11.85
2022-12-24T06:21:14.559Z,9.25
2022-12-24T06:23:43.834Z,10.98
2022-12-24T06:26:15.540Z,10.45
2022-12-24T06:28:43.430Z,12.50
2022-12-24T06:31:14.484Z,8.15
2022-12-24T06:33:42.243Z,11.65
2022-12-24T06:36:17.259Z,11.00
2022-12-24T06:38:46.019Z,15.18
2022-12-24T06:41:13.424Z,13.05
2022-12-24T06:43:43.736Z,12.85
2022-12-24T06:46:11.167Z,11.07
2022-12-24T06:48:38.478Z,12.50
2022-12-24T06:51:05.940Z,13.60
2022-12-24T06:53:33.667Z,12.55
2022-12-24T06:56:10.290Z,9.45
2022-12-24T06:58:37.904Z,12.50
2022-12-24T07:01:07.282Z,11.45
2022-12-24T07:03:35.042Z,15.70
2022-12-24T07:06:02.667Z,13.00
2022-12-24T07:08:33.564Z,12.35
2022-12-24T07:11:01.109Z,18.88
2022-12-24T07:13:29.282Z,12.35
2022-12-24T07:16:03.977Z,15.98
2022-12-24T07:18:32.138Z,13.55
2022-12-24T07:20:59.427Z,16.58
2022-12-24T07:23:26.970Z,17.73
2022-12-24T07:25:54.278Z,14.45
2022-12-24T07:28:27.486Z,11.20
2022-12-24T07:30:56.860Z,10.02
2022-12-24T07:33:25.185Z,12.43
2022-12-24T07:36:01.093Z,14.57
2022-12-24T07:38:29.292Z,12.18
2022-12-24T07:40:57.710Z,12.55
2022-12-24T07:43:26.030Z,12.85
2022-12-24T07:45:58.867Z,14.15
2022-12-24T07:48:27.823Z,14.30
2022-12-24T07:50:56.010Z,13.38
2022-12-24T07:53:24.162Z,15.25
2022-12-24T07:55:51.677Z,11.63
2022-12-24T07:58:19.659Z,10.32
2022-12-24T08:00:46.986Z,11.70
2022-12-24T08:03:21.792Z,11.13
2022-12-24T08:05:49.365Z,12.18
2022-12-24T08:08:16.622Z,14.15
2022-12-24T08:10:45.964Z,13.65
2022-12-24T08:13:14.262Z,14.10
2022-12-24T08:15:41.642Z,11.90
2022-12-24T08:18:09.375Z,15.15
2022-12-24T08:20:40.051Z,9.70
2022-12-24T08:23:08.093Z,11.32
2022-12-24T08:25:36.021Z,11.30
2022-12-24T08:28:04.081Z,12.88
2022-12-24T08:30:31.348Z,9.70
2022-12-24T08:32:58.613Z,11.43
2022-12-24T08:35:25.928Z,12.55
2022-12-24T08:37:53.289Z,12.10
2022-12-24T08:40:20.602Z,11.32
2022-12-24T08:42:47.931Z,11.65
2022-12-24T08:45:15.879Z,12.18
2022-12-24T08:47:43.201Z,11.45
2022-12-24T08:50:11.772Z,11.18
2022-12-24T08:52:39.331Z,11.80
2022-12-24T08:55:07.627Z,11.90
2022-12-24T08:57:37.286Z,10.77
2022-12-24T09:00:06.846Z,10.73
2022-12-24T09:02:34.458Z,7.22
2022-12-24T09:05:01.939Z,11.13
2022-12-24T09:07:29.298Z,11.82
2022-12-24T09:09:56.573Z,15.82
2022-12-24T09:12:23.875Z,12.90
2022-12-24T09:14:59.525Z,12.25
2022-12-24T09:17:30.377Z,13.45
2022-12-24T09:19:57.636Z,12.88
2022-12-24T09:22:25.077Z,13.52
2022-12-24T09:24:54.637Z,13.52
2022-12-24T09:27:21.928Z,16.23
2022-12-24T09:29:49.296Z,13.88
2022-12-24T09:32:16.865Z,14.25
2022-12-24T09:34:44.208Z,14.07
2022-12-24T09:37:11.504Z,14.38
2022-12-24T09:39:38.771Z,14.13
2022-12-24T09:42:15.031Z,15.02
2022-12-24T09:44:55.305Z,16.45
2022-12-24T09:47:41.228Z,14.60
2022-12-24T09:50:22.648Z,12.43
2022-12-24T09:52:52.403Z,16.13
2022-12-24T09:55:26.243Z,16.77
2022-12-24T09:57:55.435Z,17.90
2022-12-24T10:00:36.740Z,15.40
2022-12-24T10:03:16.698Z,13.85
2022-12-24T10:06:29.389Z,15.02
2022-12-24T10:09:12.065Z,15.40
2022-12-24T10:12:13.472Z,14.18
2022-12-24T10:14:50.896Z,16.55
2022-12-24T10:17:36.852Z,17.88
2022-12-24T10:20:15.884Z,14.75
2022-12-24T10:23:15.119Z,14.55
2022-12-24T10:26:07.849Z,17.60
2022-12-24T10:28:46.073Z,17.67
2022-12-24T10:31:13.809Z,17.15
2022-12-24T10:33:54.370Z,15.55
2022-12-24T10:36:27.421Z,17.15
2022-12-24T10:38:55.093Z,17.20
2022-12-24T10:41:24.603Z,15.75
2022-12-24T10:43:52.569Z,19.30
2022-12-24T10:46:24.040Z,17.52
2022-12-24T10:49:05.455Z,18.13
2022-12-24T10:51:45.601Z,19.27
2022-12-24T10:54:26.613Z,19.42
2022-12-24T10:57:02.806Z,19.90
2022-12-24T10:59:53.966Z,18.40
2022-12-24T11:02:48.582Z,19.67
2022-12-24T11:05:45.300Z,20.98
2022-12-24T11:08:18.134Z,20.92
2022-12-24T11:10:58.029Z,19.27
2022-12-24T11:13:38.489Z,19.35
2022-12-24T11:16:21.645Z,18.13
2022-12-24T11:18:55.320Z,20.60
2022-12-24T11:21:28.389Z,18.52
2022-12-24T11:23:58.901Z,17.50
2022-12-24T11:26:31.317Z,20.75
2022-12-24T11:29:24.250Z,19.80
2022-12-24T11:31:52.974Z,21.23
2022-12-24T11:34:24.583Z,18.73
2022-12-24T11:36:53.437Z,19.50
2022-12-24T11:39:26.034Z,18.63
2022-12-24T11:41:54.506Z,18.90
2022-12-24T11:44:27.400Z,18.25
2022-12-24T11:46:58.985Z,18.27
2022-12-24T11:49:32.031Z,17.33
2022-12-24T11:52:03.501Z,18.90
2022-12-24T11:54:35.737Z,19.55
2022-12-24T11:57:03.935Z,19.92
2022-12-24T11:59:41.118Z,18.70
2022-12-24T12:02:29.212Z,17.27
2022-12-24T12:05:05.220Z,17.38
2022-12-24T12:07:36.104Z,18.98
2022-12-24T12:10:37.321Z,18.75
2022-12-24T12:13:15.915Z,20.17
2022-12-24T12:15:50.242Z,19.52
2022-12-24T12:18:23.796Z,18.13
2022-12-24T12:21:02.226Z,16.67
2022-12-24T12:23:31.583Z,19.23
2022-12-24T12:26:17.895Z,21.08
2022-12-24T12:29:14.959Z,17.27
2022-12-24T12:31:48.227Z,17.52
2022-12-24T12:34:27.285Z,16.60
2022-12-24T12:37:09.601Z,17.85
2022-12-24T12:39:40.365Z,22.50
2022-12-24T12:42:16.545Z,17.67
2022-12-24T12:44:49.729Z,17.20
2022-12-24T12:47:57.127Z,17.30
2022-12-24T12:50:39.633Z,20.13
2022-12-24T12:53:35.211Z,19.35
2022-12-24T12:56:34.002Z,19.90
2022-12-24T12:59:22.785Z,17.95
2022-12-24T13:02:11.176Z,18.38
2022-12-24T13:04:51.970Z,20.90
2022-12-24T13:07:37.530Z,23.38
2022-12-24T13:10:17.060Z,17.45
2022-12-24T13:13:01.735Z,20.73
2022-12-24T13:15:31.953Z,21.20
2022-12-24T13:18:45.301Z,21.52
2022-12-24T13:21:22.917Z,22.08
2022-12-24T13:23:50.659Z,21.73
2022-12-24T13:26:19.479Z,21.60
2022-12-24T13:28:46.802Z,22.92
2022-12-24T13:31:20.305Z,23.80
2022-12-24T13:33:50.361Z,22.38
2022-12-24T13:36:19.874Z,22.23
2022-12-24T13:39:00.030Z,25.42
2022-12-24T13:41:38.759Z,25.60
2022-12-24T13:44:12.565Z,22.20
2022-12-24T13:47:05.026Z,24.63
2022-12-24T13:49:40.452Z,23.33
2022-12-24T13:52:11.902Z,25.50
2022-12-24T13:54:46.657Z,23.40
2022-12-24T13:57:35.737Z,23.48
2022-12-24T14:00:25.839Z,24.17
2022-12-24T14:02:58.248Z,25.35
2022-12-24T14:05:30.930Z,21.50
2022-12-24T14:08:00.608Z,25.30
2022-12-24T14:10:35.547Z,21.15
2022-12-24T14:13:02.915Z,24.35
2022-12-24T14:15:49.878Z,23.25
2022-12-24T14:18:24.954Z,25.40
2022-12-24T14:20:56.312Z,26.85
2022-12-24T14:23:48.057Z,24.20
2022-12-24T14:26:18.663Z,26.60
2022-12-24T14:28:57.599Z,26.40
2022-12-24T14:31:25.187Z,25.45
2022-12-24T14:33:52.566Z,26.38
2022-12-24T14:36:24.056Z,25.20
2022-12-24T14:38:51.588Z,23.77
2022-12-24T14:41:30.201Z,24.88
2022-12-24T14:44:02.661Z,26.95
2022-12-24T14:46:35.093Z,28.67
2022-12-24T14:49:21.653Z,28.45
2022-12-24T14:51:54.952Z,24.73
2022-12-24T14:54:39.203Z,24.80
2022-12-24T14:57:21.662Z,22.08
2022-12-24T14:59:53.528Z,24.60
2022-12-24T15:02:25.046Z,25.58
2022-12-24T15:05:17.077Z,23.50
2022-12-24T15:08:09.000Z,24.08
2022-12-24T15:10:39.646Z,24.15
2022-12-24T15:13:32.731Z,24.67
2022-12-24T15:16:05.646Z,21.80
2022-12-24T15:18:36.574Z,24.33
2022-12-24T15:21:07.215Z,24.33
2022-12-24T15:23:37.016Z,21.63
2022-12-24T15:26:14.120Z,22.20
2022-12-24T15:28:41.672Z,25.42
2022-12-24T15:31:13.699Z,23.15
2022-12-24T15:33:43.961Z,21.85
2022-12-24T15:36:11.454Z,21.33
2022-12-24T15:38:41.427Z,21.00
2022-12-24T15:41:58.927Z,24.25
2022-12-24T15:44:27.350Z,21.70
2022-12-24T15:47:00.622Z,19.95
2022-12-24T15:49:30.099Z,20.25
2022-12-24T15:52:12.572Z,19.55
2022-12-24T15:54:52.164Z,18.33
2022-12-24T15:57:33.977Z,19.95
2022-12-24T16:00:04.247Z,17.40
2022-12-24T16:02:42.906Z,16.90
2022-12-24T16:05:33.079Z,17.83
2022-12-24T16:08:10.155Z,15.60
2022-12-24T16:10:48.205Z,18.05
2022-12-24T16:13:30.312Z,15.77
2022-12-24T16:16:11.393Z,15.82
2022-12-24T16:18:51.749Z,15.90
2022-12-24T16:21:28.043Z,14.98
2022-12-24T16:23:57.595Z,16.52
2022-12-24T16:26:25.183Z,16.17
2022-12-24T16:28:52.526Z,15.80
2022-12-24T16:31:31.359Z,14.35
2022-12-24T16:34:00.629Z,15.57
2022-12-24T16:36:29.481Z,15.48
2022-12-24T16:39:17.286Z,14.10
2022-12-24T16:42:03.093Z,14.43
2022-12-24T16:44:30.401Z,15.60
2022-12-24T16:47:00.373Z,14.15
2022-12-24T16:49:28.953Z,12.93
2022-12-24T16:51:56.589Z,12.20
2022-12-24T16:54:23.862Z,14.15
2022-12-24T16:56:51.218Z,14.45
2022-12-24T16:59:21.475Z,13.65
2022-12-24T17:01:49.998Z,13.10
2022-12-24T17:04:18.297Z,14.13
2022-12-24T17:06:48.467Z,12.43
2022-12-24T17:09:16.188Z,12.48
2022-12-24T17:11:43.478Z,12.88
2022-12-24T17:14:19.805Z,11.82
2022-12-24T17:16:47.913Z,14.15
2022-12-24T17:19:15.435Z,14.55
2022-12-24T17:21:42.900Z,12.77
2022-12-24T17:24:10.504Z,11.38
2022-12-24T17:26:38.199Z,13.52
2022-12-24T17:29:06.359Z,11.93
2022-12-24T17:31:34.120Z,11.48
2022-12-24T17:34:01.563Z,12.15
2022-12-24T17:36:28.897Z,12.35
2022-12-24T17:38:56.225Z,11.68
2022-12-24T17:41:23.974Z,11.38
2022-12-24T17:43:51.288Z,12.35
2022-12-24T17:46:23.841Z,12.88
2022-12-24T17:48:52.237Z,10.77
2022-12-24T17:51:21.967Z,11.70
2022-12-24T17:53:49.838Z,13.02
2022-12-24T17:56:17.959Z,11.55
2022-12-24T17:58:46.440Z,10.65
2022-12-24T18:01:25.007Z,11.05
2022-12-24T18:03:53.340Z,9.60
2022-12-24T18:06:21.211Z,10.30
2022-12-24T18:08:48.713Z,10.35
2022-12-24T18:11:20.512Z,13.07
2022-12-24T18:13:48.419Z,12.55
2022-12-24T18:16:26.519Z,10.50
2022-12-24T18:18:54.392Z,10.35
2022-12-24T18:21:23.545Z,10.23
2022-12-24T18:23:52.240Z,10.27
2022-12-24T18:26:20.586Z,9.52
2022-12-24T18:28:47.912Z,10.15
2022-12-24T18:31:19.040Z,9.35
2022-12-24T18:33:48.715Z,10.05
2022-12-24T18:36:16.547Z,12.23
2022-12-24T18:38:43.927Z,10.25
2022-12-24T18:41:14.177Z,11.32
2022-12-24T18:43:41.552Z,9.80
2022-12-24T18:46:15.113Z,11.93
2022-12-24T18:48:42.649Z,10.55
2022-12-24T18:51:11.098Z,10.75
2022-12-24T18:53:39.041Z,11.13
2022-12-24T18:56:10.628Z,9.90
2022-12-24T18:58:38.090Z,8.82
2022-12-24T19:01:22.073Z,8.23
2022-12-24T19:03:49.892Z,9.77
2022-12-24T19:06:18.366Z,8.93
2022-12-24T19:08:57.130Z,8.43
2022-12-24T19:11:26.080Z,8.85
2022-12-24T19:13:53.542Z,7.50
2022-12-24T19:16:21.847Z,9.75
2022-12-24T19:18:49.607Z,10.40
2022-12-24T19:21:18.103Z,9.85
2022-12-24T19:23:46.422Z,8.55
2022-12-24T19:26:15.523Z,7.72
2022-12-24T19:28:43.329Z,7.95
2022-12-24T19:31:14.253Z,10.27
2022-12-24T19:33:47.647Z,8.55
2022-12-24T19:36:17.315Z,8.18
2022-12-24T19:38:45.363Z,8.93
2022-12-24T19:41:21.145Z,7.25
2022-12-24T19:43:50.542Z,10.23
2022-12-24T19:46:20.790Z,8.32
2022-12-24T19:48:54.309Z,8.50
2022-12-24T19:51:22.633Z,8.63
2022-12-24T19:53:50.236Z,8.32
2022-12-24T19:56:19.504Z,7.75
2022-12-24T19:58:47.253Z,7.63
2022-12-24T20:01:20.343Z,7.75
2022-12-24T20:03:49.056Z,6.40
2022-12-24T20:06:18.549Z,5.72
2022-12-24T20:08:45.837Z,7.05
2022-12-24T20:11:15.762Z,6.70
2022-12-24T20:13:43.624Z,8.48
2022-12-24T20:16:17.282Z,7.75
2022-12-24T20:18:44.815Z,7.40
2022-12-24T20:21:13.258Z,8.45
2022-12-24T20:23:41.574Z,12.57
2022-12-24T20:26:11.985Z,8.02
2022-12-24T20:28:40.140Z,6.82
2022-12-24T20:31:13.793Z,7.05
2022-12-24T20:33:42.558Z,5.22
2022-12-24T20:36:11.174Z,7.90
2022-12-24T20:38:39.230Z,7.20
2022-12-24T20:41:09.721Z,9.32
2022-12-24T20:43:44.930Z,8.25
2022-12-24T20:46:15.085Z,8.13
2022-12-24T20:48:42.470Z,7.30
2022-12-24T20:51:17.597Z,7.85
2022-12-24T20:53:48.815Z,7.47
2022-12-24T20:56:17.538Z,6.00
2022-12-24T20:58:45.565Z,7.63
2022-12-24T21:01:18.592Z,5.80
2022-12-24T21:03:46.355Z,5.93
2022-12-24T21:06:17.655Z,8.55
2022-12-24T21:08:46.624Z,4.90
2022-12-24T21:11:32.644Z,12.32
2022-12-24T21:14:02.263Z,15.93
2022-12-24T21:16:31.250Z,13.60
2022-12-24T21:18:58.717Z,17.23
2022-12-24T21:21:27.488Z,19.23
2022-12-24T21:23:54.830Z,14.82
2022-12-24T21:26:22.295Z,17.98
2022-12-24T21:28:50.484Z,26.13
2022-12-24T21:31:17.966Z,25.92
2022-12-24T21:33:45.499Z,21.70
2022-12-24T21:36:14.396Z,33.95
2022-12-24T21:38:42.147Z,27.60
2022-12-24T21:41:21.701Z,26.45
2022-12-24T21:43:49.269Z,27.38
2022-12-24T21:46:23.007Z,33.03
2022-12-24T21:49:10.594Z,28.92
2022-12-24T21:51:38.893Z,28.83
2022-12-24T21:54:25.682Z,21.70
2022-12-24T21:57:13.971Z,42.80
2022-12-24T21:59:41.329Z,24.83
2022-12-24T22:02:11.724Z,33.25
2022-12-24T22:04:39.300Z,25.55
2022-12-24T22:07:24.983Z,29.38
2022-12-24T22:10:10.661Z,30.58
2022-12-24T22:12:38.007Z,26.20
2022-12-24T22:15:07.006Z,22.88
2022-12-24T22:17:34.366Z,25.95
2022-12-24T22:20:01.713Z,26.23
2022-12-24T22:22:29.023Z,24.42
2022-12-24T22:24:56.277Z,25.00
2022-12-24T22:27:23.997Z,29.30
2022-12-24T22:29:51.447Z,28.20
2022-12-24T22:32:19.016Z,24.27
2022-12-24T22:34:46.604Z,25.20
2022-12-24T22:37:13.865Z,21.85
2022-12-24T22:39:41.168Z,27.73
2022-12-24T22:42:08.554Z,23.92
2022-12-24T22:44:35.867Z,20.40
2022-12-24T22:47:03.243Z,25.85
2022-12-24T22:49:30.668Z,26.20
2022-12-24T22:51:58.661Z,26.95
2022-12-24T22:54:26.119Z,29.38
2022-12-24T22:56:53.427Z,26.70
2022-12-24T22:59:20.732Z,23.77
2022-12-24T23:01:48.629Z,27.23
2022-12-24T23:04:16.162Z,28.10
2022-12-24T23:06:44.597Z,25.23
2022-12-24T23:09:15.794Z,22.92
2022-12-24T23:11:44.096Z,26.67
2022-12-24T23:14:35.647Z,27.90
2022-12-24T23:17:03.112Z,30.52
2022-12-24T23:19:32.039Z,27.92
2022-12-24T23:22:00.164Z,26.20
2022-12-24T23:24:27.812Z,27.08
2022-12-24T23:26:55.416Z,29.33
2022-12-24T23:29:22.987Z,27.02
2022-12-24T23:31:50.293Z,24.65
2022-12-24T23:34:17.534Z,25.27
2022-12-24T23:36:44.867Z,28.60
2022-12-24T23:39:12.148Z,27.63
2022-12-24T23:41:39.390Z,27.88
2022-12-24T23:44:06.704Z,26.73
2022-12-24T23:46:34.064Z,28.23
2022-12-24T23:49:01.447Z,27.15
2022-12-24T23:51:29.228Z,26.45
2022-12-24T23:53:57.697Z,25.17
2022-12-24T23:56:26.212Z,25.55
2022-12-24T23:58:53.931Z,24.48
